Mr T — WSD5840 — position and weather

sailwx.info

Track history (hours):
 
Tides and Currents Weather Stations Pressure Air Temp Water Temp Dewpoint Dewpoint Depression Visibility Wind Speed Wind Dir Waves Ship Positions

Mr T

Owner: GULF SOUTH MARINE TRANSPORTATION, INC, NEW ORLEANS, LA. More information available from US FCC via Universal Licensing System and Coast Guard Vessel Documentation Center.

Last reported at 2017-Aug-22 19:56 UTC. Time now 2017-Sep-22 20:52 UTC.
Position N 29°49' W 092°03'.
Warning: this ship's position is 31 days out of date.

Length 19 m; draft 2.8 m.

Type: Towing. MMSI: 367006230.

Date/timePositionNaut miles runAvg speedWind from/ knotsBaromVisibWave heightAir tempDewpointWater temp
2017-Aug-22 19:56N 29°49' W 092°03'2 4.1
2017-Aug-22 19:30N 29°48' W 092°05'2 4.2
2017-Aug-22 19:00N 29°47' W 092°08'2 4.4
2017-Aug-22 18:30N 29°47' W 092°10'0 0.4
2017-Aug-22 18:00N 29°47' W 092°10'0 0.0
2017-Aug-22 17:30N 29°47' W 092°10'0 0.0
2017-Aug-22 17:00N 29°47' W 092°10'0 0.2
2017-Aug-22 16:30N 29°47' W 092°10'0 0.6
2017-Aug-22 16:00N 29°47' W 092°11'0 0.8
2017-Aug-22 15:30N 29°47' W 092°11'0 0.2
2017-Aug-22 15:00N 29°47' W 092°11'0 0.0
2017-Aug-22 14:30N 29°47' W 092°11'0 0.0
2017-Aug-22 14:00N 29°47' W 092°11'0 0.0
2017-Aug-22 13:30N 29°47' W 092°11'0 0.0
2017-Aug-22 13:00N 29°47' W 092°11'0 0.1
2017-Aug-22 12:30N 29°47' W 092°11'0 0.1
2017-Aug-22 12:00N 29°47' W 092°11'0 0.0
2017-Aug-22 11:30N 29°47' W 092°11'0 0.0
2017-Aug-22 11:00N 29°47' W 092°11'1 2.5
2017-Aug-22 10:30N 29°47' W 092°12'1 2.8
2017-Aug-22 10:00N 29°48' W 092°14'1 2.8
2017-Aug-22 09:30N 29°48' W 092°15'2 4.1
2017-Aug-22 09:00N 29°49' W 092°17'42 4.0
2017-Aug-21 22:37N 29°56' W 093°05'1 4.1
2017-Aug-21 22:26N 29°56' W 093°06'2 3.7
2017-Aug-21 22:00N 29°56' W 093°07'2 3.9
2017-Aug-21 21:30N 29°56' W 093°10'1 1.7
2017-Aug-21 21:00N 29°57' W 093°10'2 3.8
2017-Aug-21 20:30N 29°58' W 093°12'2 4.2
2017-Aug-21 20:00N 29°60' W 093°13'2 3.8
2017-Aug-21 19:30N 30°02' W 093°14'2 3.8
2017-Aug-21 19:00N 30°03' W 093°16'2 4.1
2017-Aug-21 18:30N 30°05' W 093°17'1 2.2
2017-Aug-21 18:00N 30°05' W 093°18'1 2.4
2017-Aug-21 17:30N 30°06' W 093°19'2 4.3
2017-Aug-21 17:00N 30°04' W 093°21'1 2.5
2017-Aug-21 16:30N 30°04' W 093°22'0 0.0
2017-Aug-21 16:00N 30°04' W 093°22'1 1.2
2017-Aug-21 15:30N 30°04' W 093°21'1 1.1
2017-Aug-21 15:00N 30°04' W 093°22'1 1.4
2017-Aug-21 14:30N 30°04' W 093°23'3 5.6
2017-Aug-21 14:00N 30°04' W 093°26'3 5.8
2017-Aug-21 13:30N 30°04' W 093°29'3 5.8
2017-Aug-21 13:00N 30°04' W 093°33'3 6.0
2017-Aug-21 12:30N 30°04' W 093°36'3 6.3
2017-Aug-21 12:00N 30°04' W 093°40'72 3.7
2017-Aug-20 16:31N 29°32' W 094°54'0 6.0
2017-Aug-20 16:30N 29°32' W 094°54'3 5.7
2017-Aug-20 16:00N 29°34' W 094°56'3 5.8
2017-Aug-20 15:30N 29°37' W 094°57'3 6.0
2017-Aug-20 14:58N 29°40' W 094°59'2 5.0
2017-Aug-20 14:30N 29°42' W 094°60'3 5.1
2017-Aug-20 14:00N 29°44' W 095°02'3 5.2
2017-Aug-20 13:22N 29°46' W 095°05'1 1.7
2017-Aug-20 13:00N 29°47' W 095°05'1 2.4
2017-Aug-20 12:30N 29°47' W 095°04'0 0.0
2017-Aug-20 11:47N 29°47' W 095°04'0 0.1
2017-Aug-20 11:30N 29°47' W 095°04'0 0.0
2017-Aug-20 10:59N 29°47' W 095°04'2 2.3
2017-Aug-20 10:09N 29°46' W 095°05'1 0.1
2017-Aug-19 21:45N 29°46' W 095°06'0 0.0
2017-Aug-19 21:22N 29°46' W 095°06'1 0.3
2017-Aug-19 19:28N 29°46' W 095°06'2 4.2
2017-Aug-19 18:55N 29°44' W 095°04'2 5.3
2017-Aug-19 18:29N 29°43' W 095°01'2 4.5
2017-Aug-19 18:00N 29°42' W 094°60'3 5.5
2017-Aug-19 17:30N 29°39' W 094°58'3 6.1
2017-Aug-19 17:00N 29°36' W 094°57'3 6.1
2017-Aug-19 16:30N 29°34' W 094°55'3 6.1
2017-Aug-19 16:00N 29°31' W 094°53'72 2.8
2017-Aug-18 14:48N 30°04' W 093°40'4 5.4
2017-Aug-18 14:00N 30°04' W 093°35'3 5.5
2017-Aug-18 13:30N 30°04' W 093°31'3 5.6
2017-Aug-18 13:00N 30°04' W 093°28'3 5.5
2017-Aug-18 12:30N 30°04' W 093°25'3 5.6
2017-Aug-18 12:00N 30°04' W 093°22'2 4.5
2017-Aug-18 11:30N 30°05' W 093°20'2 3.2
2017-Aug-18 11:00N 30°06' W 093°18'1 2.1
2017-Aug-18 10:30N 30°05' W 093°17'1 1.6
2017-Aug-18 10:00N 30°05' W 093°17'0 0.7
2017-Aug-18 09:30N 30°04' W 093°16'0 0.1
2017-Aug-18 09:00N 30°04' W 093°16'0 0.0
2017-Aug-18 08:30N 30°04' W 093°16'0 0.0
2017-Aug-18 08:00N 30°04' W 093°16'0 0.0
2017-Aug-18 07:30N 30°04' W 093°16'0 0.0
2017-Aug-18 07:00N 30°04' W 093°16'0 0.0
2017-Aug-18 06:30N 30°04' W 093°16'0 0.0
2017-Aug-18 06:00N 30°04' W 093°16'1 1.1
2017-Aug-18 05:30N 30°04' W 093°16'2 4.3
2017-Aug-18 05:00N 30°02' W 093°15'2 4.9
2017-Aug-18 04:30N 29°60' W 093°13'1 1.2
2017-Aug-18 04:00N 29°59' W 093°13'2 4.3
2017-Aug-18 03:30N 29°58' W 093°11'3 5.4
2017-Aug-18 03:00N 29°56' W 093°09'3 5.4
2017-Aug-18 02:23N 29°56' W 093°05'38 4.3
2017-Aug-17 17:29N 29°51' W 092°21'2 3.9
2017-Aug-17 17:00N 29°50' W 092°19'2 4.2
2017-Aug-17 16:30N 29°49' W 092°17'3 5.4
2017-Aug-17 16:01N 29°48' W 092°14'2 3.9
2017-Aug-17 15:30N 29°47' W 092°12'1 1.3
2017-Aug-17 15:00N 29°47' W 092°12'0 0.0
2017-Aug-17 14:30N 29°47' W 092°12'0 0.0
2017-Aug-17 14:00N 29°47' W 092°12'0 0.2
2017-Aug-17 13:30N 29°47' W 092°12'0 0.5
2017-Aug-17 13:00N 29°47' W 092°11'0 0.0
2017-Aug-17 12:31N 29°47' W 092°11'0 0.1
2017-Aug-17 12:01N 29°47' W 092°11'1 2.1
2017-Aug-17 11:30N 29°47' W 092°10'3 5.7
2017-Aug-17 11:00N 29°47' W 092°07'2 3.2
2017-Aug-17 10:31N 29°48' W 092°05'3 5.7
2017-Aug-17 09:57N 29°49' W 092°02'3 5.6
2017-Aug-17 09:20N 29°50' W 091°58'0 0.3
2017-Aug-17 09:00N 29°50' W 091°58'0 0.0
2017-Aug-17 08:28N 29°50' W 091°58'0 0.0
2017-Aug-17 07:51N 29°50' W 091°58'0 0.0
2017-Aug-17 07:29N 29°50' W 091°58'0 0.0
2017-Aug-17 07:00N 29°50' W 091°58'0 0.0
2017-Aug-17 06:30N 29°50' W 091°58'0 0.1
2017-Aug-17 05:53N 29°50' W 091°58'2 1.6
2017-Aug-17 04:46N 29°51' W 091°56'0 0.0
2017-Aug-17 04:30N 29°51' W 091°56'0 0.3
2017-Aug-17 04:00N 29°51' W 091°56'60 4.2
2017-Aug-16 13:47N 29°32' W 090°51'2 5.5
2017-Aug-16 13:30N 29°32' W 090°49'3 5.1
2017-Aug-16 13:00N 29°32' W 090°46'3 4.4
2017-Aug-16 12:22N 29°34' W 090°44'1 2.8
2017-Aug-16 12:00N 29°35' W 090°43'2 3.5
2017-Aug-16 11:30N 29°36' W 090°43'2 3.3
2017-Aug-16 11:00N 29°36' W 090°41'1 2.5
2017-Aug-16 10:30N 29°36' W 090°39'1 2.5
2017-Aug-16 10:00N 29°35' W 090°38'2 4.3
2017-Aug-16 09:30N 29°35' W 090°36'2 4.6
2017-Aug-16 09:00N 29°34' W 090°33'  
Track history (hours):
 
Tides and Currents Weather Stations Pressure Air Temp Water Temp Dewpoint Dewpoint Depression Visibility Wind Speed Wind Dir Waves Ship Positions

Mr T

Owner: GULF SOUTH MARINE TRANSPORTATION, INC, NEW ORLEANS, LA. More information available from US FCC via Universal Licensing System and Coast Guard Vessel Documentation Center.

Last reported at 2017-Aug-22 19:56 UTC. Time now 2017-Sep-22 20:52 UTC.
Position N 29°49' W 092°03'.
Warning: this ship's position is 31 days out of date.

Length 19 m; draft 2.8 m.

Type: Towing. MMSI: 367006230.

Date/timePositionNaut miles runAvg speedWind from/ knotsBaromVisibWave heightAir tempDewpointWater temp
2017-Aug-22 19:56N 29°49' W 092°03'2 4.1
2017-Aug-22 19:30N 29°48' W 092°05'2 4.2
2017-Aug-22 19:00N 29°47' W 092°08'2 4.4
2017-Aug-22 18:30N 29°47' W 092°10'0 0.4
2017-Aug-22 18:00N 29°47' W 092°10'0 0.0
2017-Aug-22 17:30N 29°47' W 092°10'0 0.0
2017-Aug-22 17:00N 29°47' W 092°10'0 0.2
2017-Aug-22 16:30N 29°47' W 092°10'0 0.6
2017-Aug-22 16:00N 29°47' W 092°11'0 0.8
2017-Aug-22 15:30N 29°47' W 092°11'0 0.2
2017-Aug-22 15:00N 29°47' W 092°11'0 0.0
2017-Aug-22 14:30N 29°47' W 092°11'0 0.0
2017-Aug-22 14:00N 29°47' W 092°11'0 0.0
2017-Aug-22 13:30N 29°47' W 092°11'0 0.0
2017-Aug-22 13:00N 29°47' W 092°11'0 0.1
2017-Aug-22 12:30N 29°47' W 092°11'0 0.1
2017-Aug-22 12:00N 29°47' W 092°11'0 0.0
2017-Aug-22 11:30N 29°47' W 092°11'0 0.0
2017-Aug-22 11:00N 29°47' W 092°11'1 2.5
2017-Aug-22 10:30N 29°47' W 092°12'1 2.8
2017-Aug-22 10:00N 29°48' W 092°14'1 2.8
2017-Aug-22 09:30N 29°48' W 092°15'2 4.1
2017-Aug-22 09:00N 29°49' W 092°17'42 4.0
2017-Aug-21 22:37N 29°56' W 093°05'1 4.1
2017-Aug-21 22:26N 29°56' W 093°06'2 3.7
2017-Aug-21 22:00N 29°56' W 093°07'2 3.9
2017-Aug-21 21:30N 29°56' W 093°10'1 1.7
2017-Aug-21 21:00N 29°57' W 093°10'2 3.8
2017-Aug-21 20:30N 29°58' W 093°12'2 4.2
2017-Aug-21 20:00N 29°60' W 093°13'2 3.8
2017-Aug-21 19:30N 30°02' W 093°14'2 3.8
2017-Aug-21 19:00N 30°03' W 093°16'2 4.1
2017-Aug-21 18:30N 30°05' W 093°17'1 2.2
2017-Aug-21 18:00N 30°05' W 093°18'1 2.4
2017-Aug-21 17:30N 30°06' W 093°19'2 4.3
2017-Aug-21 17:00N 30°04' W 093°21'1 2.5
2017-Aug-21 16:30N 30°04' W 093°22'0 0.0
2017-Aug-21 16:00N 30°04' W 093°22'1 1.2
2017-Aug-21 15:30N 30°04' W 093°21'1 1.1
2017-Aug-21 15:00N 30°04' W 093°22'1 1.4
2017-Aug-21 14:30N 30°04' W 093°23'3 5.6
2017-Aug-21 14:00N 30°04' W 093°26'3 5.8
2017-Aug-21 13:30N 30°04' W 093°29'3 5.8
2017-Aug-21 13:00N 30°04' W 093°33'3 6.0
2017-Aug-21 12:30N 30°04' W 093°36'3 6.3
2017-Aug-21 12:00N 30°04' W 093°40'72 3.7
2017-Aug-20 16:31N 29°32' W 094°54'0 6.0
2017-Aug-20 16:30N 29°32' W 094°54'3 5.7
2017-Aug-20 16:00N 29°34' W 094°56'3 5.8
2017-Aug-20 15:30N 29°37' W 094°57'3 6.0
2017-Aug-20 14:58N 29°40' W 094°59'2 5.0
2017-Aug-20 14:30N 29°42' W 094°60'3 5.1
2017-Aug-20 14:00N 29°44' W 095°02'3 5.2
2017-Aug-20 13:22N 29°46' W 095°05'1 1.7
2017-Aug-20 13:00N 29°47' W 095°05'1 2.4
2017-Aug-20 12:30N 29°47' W 095°04'0 0.0
2017-Aug-20 11:47N 29°47' W 095°04'0 0.1
2017-Aug-20 11:30N 29°47' W 095°04'0 0.0
2017-Aug-20 10:59N 29°47' W 095°04'2 2.3
2017-Aug-20 10:09N 29°46' W 095°05'1 0.1
2017-Aug-19 21:45N 29°46' W 095°06'0 0.0
2017-Aug-19 21:22N 29°46' W 095°06'1 0.3
2017-Aug-19 19:28N 29°46' W 095°06'2 4.2
2017-Aug-19 18:55N 29°44' W 095°04'2 5.3
2017-Aug-19 18:29N 29°43' W 095°01'2 4.5
2017-Aug-19 18:00N 29°42' W 094°60'3 5.5
2017-Aug-19 17:30N 29°39' W 094°58'3 6.1
2017-Aug-19 17:00N 29°36' W 094°57'3 6.1
2017-Aug-19 16:30N 29°34' W 094°55'3 6.1
2017-Aug-19 16:00N 29°31' W 094°53'72 2.8
2017-Aug-18 14:48N 30°04' W 093°40'4 5.4
2017-Aug-18 14:00N 30°04' W 093°35'3 5.5
2017-Aug-18 13:30N 30°04' W 093°31'3 5.6
2017-Aug-18 13:00N 30°04' W 093°28'3 5.5
2017-Aug-18 12:30N 30°04' W 093°25'3 5.6
2017-Aug-18 12:00N 30°04' W 093°22'2 4.5
2017-Aug-18 11:30N 30°05' W 093°20'2 3.2
2017-Aug-18 11:00N 30°06' W 093°18'1 2.1
2017-Aug-18 10:30N 30°05' W 093°17'1 1.6
2017-Aug-18 10:00N 30°05' W 093°17'0 0.7
2017-Aug-18 09:30N 30°04' W 093°16'0 0.1
2017-Aug-18 09:00N 30°04' W 093°16'0 0.0
2017-Aug-18 08:30N 30°04' W 093°16'0 0.0
2017-Aug-18 08:00N 30°04' W 093°16'0 0.0
2017-Aug-18 07:30N 30°04' W 093°16'0 0.0
2017-Aug-18 07:00N 30°04' W 093°16'0 0.0
2017-Aug-18 06:30N 30°04' W 093°16'0 0.0
2017-Aug-18 06:00N 30°04' W 093°16'1 1.1
2017-Aug-18 05:30N 30°04' W 093°16'2 4.3
2017-Aug-18 05:00N 30°02' W 093°15'2 4.9
2017-Aug-18 04:30N 29°60' W 093°13'1 1.2
2017-Aug-18 04:00N 29°59' W 093°13'2 4.3
2017-Aug-18 03:30N 29°58' W 093°11'3 5.4
2017-Aug-18 03:00N 29°56' W 093°09'3 5.4
2017-Aug-18 02:23N 29°56' W 093°05'38 4.3
2017-Aug-17 17:29N 29°51' W 092°21'2 3.9
2017-Aug-17 17:00N 29°50' W 092°19'2 4.2
2017-Aug-17 16:30N 29°49' W 092°17'3 5.4
2017-Aug-17 16:01N 29°48' W 092°14'2 3.9
2017-Aug-17 15:30N 29°47' W 092°12'1 1.3
2017-Aug-17 15:00N 29°47' W 092°12'0 0.0
2017-Aug-17 14:30N 29°47' W 092°12'0 0.0
2017-Aug-17 14:00N 29°47' W 092°12'0 0.2
2017-Aug-17 13:30N 29°47' W 092°12'0 0.5
2017-Aug-17 13:00N 29°47' W 092°11'0 0.0
2017-Aug-17 12:31N 29°47' W 092°11'0 0.1
2017-Aug-17 12:01N 29°47' W 092°11'1 2.1
2017-Aug-17 11:30N 29°47' W 092°10'3 5.7
2017-Aug-17 11:00N 29°47' W 092°07'2 3.2
2017-Aug-17 10:31N 29°48' W 092°05'3 5.7
2017-Aug-17 09:57N 29°49' W 092°02'3 5.6
2017-Aug-17 09:20N 29°50' W 091°58'0 0.3
2017-Aug-17 09:00N 29°50' W 091°58'0 0.0
2017-Aug-17 08:28N 29°50' W 091°58'0 0.0
2017-Aug-17 07:51N 29°50' W 091°58'0 0.0
2017-Aug-17 07:29N 29°50' W 091°58'0 0.0
2017-Aug-17 07:00N 29°50' W 091°58'0 0.0
2017-Aug-17 06:30N 29°50' W 091°58'0 0.1
2017-Aug-17 05:53N 29°50' W 091°58'2 1.6
2017-Aug-17 04:46N 29°51' W 091°56'0 0.0
2017-Aug-17 04:30N 29°51' W 091°56'0 0.3
2017-Aug-17 04:00N 29°51' W 091°56'60 4.2
2017-Aug-16 13:47N 29°32' W 090°51'2 5.5
2017-Aug-16 13:30N 29°32' W 090°49'3 5.1
2017-Aug-16 13:00N 29°32' W 090°46'3 4.4
2017-Aug-16 12:22N 29°34' W 090°44'1 2.8
2017-Aug-16 12:00N 29°35' W 090°43'2 3.5
2017-Aug-16 11:30N 29°36' W 090°43'2 3.3
2017-Aug-16 11:00N 29°36' W 090°41'1 2.5
2017-Aug-16 10:30N 29°36' W 090°39'1 2.5
2017-Aug-16 10:00N 29°35' W 090°38'2 4.3
2017-Aug-16 09:30N 29°35' W 090°36'2 4.6
2017-Aug-16 09:00N 29°34' W 090°33'  

Dump ship's entire track history